createdAt,value
2022-10-10T00:02:53.897Z,9.30
2022-10-10T00:05:55.004Z,9.30
2022-10-10T00:08:55.928Z,9.30
2022-10-10T00:11:56.833Z,9.10
2022-10-10T00:14:57.555Z,9.00
2022-10-10T00:17:58.998Z,9.20
2022-10-10T00:21:00.375Z,9.20
2022-10-10T00:24:01.157Z,9.30
2022-10-10T00:27:01.890Z,9.30
2022-10-10T00:30:05.612Z,9.40
2022-10-10T00:33:06.580Z,9.40
2022-10-10T00:36:07.906Z,9.40
2022-10-10T00:39:08.658Z,9.30
2022-10-10T00:42:14.280Z,9.30
2022-10-10T00:45:36.364Z,9.20
2022-10-10T00:48:45.380Z,9.20
2022-10-10T00:51:51.220Z,9.30
2022-10-10T00:54:52.264Z,9.40
2022-10-10T00:57:53.533Z,9.40
2022-10-10T01:00:55.606Z,9.40
2022-10-10T01:04:02.272Z,9.40
2022-10-10T01:07:12.776Z,9.40
2022-10-10T01:10:19.380Z,9.30
2022-10-10T01:13:46.743Z,9.40
2022-10-10T01:17:10.243Z,9.30
2022-10-10T01:20:19.114Z,9.40
2022-10-10T01:23:41.906Z,9.50
2022-10-10T01:27:35.322Z,9.50
2022-10-10T01:30:36.996Z,9.50
2022-10-10T01:34:12.040Z,9.50
2022-10-10T01:37:50.756Z,9.50
2022-10-10T01:41:06.972Z,9.60
2022-10-10T01:44:07.993Z,9.60
2022-10-10T01:47:12.296Z,9.60
2022-10-10T01:50:19.906Z,9.60
2022-10-10T01:53:38.195Z,9.60
2022-10-10T02:00:10.257Z,9.60
2022-10-10T02:03:29.561Z,9.60
2022-10-10T02:06:49.598Z,9.60
2022-10-10T02:09:53.704Z,9.50
2022-10-10T02:12:58.813Z,9.50
2022-10-10T02:16:04.917Z,9.40
2022-10-10T02:19:16.052Z,9.40
2022-10-10T02:22:19.473Z,9.40
2022-10-10T02:25:35.763Z,9.30
2022-10-10T02:28:57.963Z,9.30
2022-10-10T02:32:07.364Z,9.30
2022-10-10T02:35:16.817Z,9.40
2022-10-10T02:38:20.519Z,9.40
2022-10-10T02:41:23.507Z,9.40
2022-10-10T02:44:26.428Z,9.40
2022-10-10T02:47:27.785Z,9.40
2022-10-10T02:50:30.980Z,9.30
2022-10-10T02:53:32.165Z,9.30
2022-10-10T02:56:33.043Z,9.20
2022-10-10T02:59:34.688Z,9.20
2022-10-10T03:02:35.724Z,9.20
2022-10-10T03:05:36.773Z,9.20
2022-10-10T03:08:40.723Z,9.20
2022-10-10T03:11:41.651Z,9.20
2022-10-10T03:14:42.410Z,9.10
2022-10-10T03:17:43.943Z,9.10
2022-10-10T03:20:47.146Z,9.10
2022-10-10T03:23:48.390Z,9.20
2022-10-10T03:26:49.191Z,9.20
2022-10-10T03:29:50.041Z,9.10
2022-10-10T03:32:50.916Z,9.10
2022-10-10T03:35:52.102Z,9.10
2022-10-10T03:38:52.883Z,9.10
2022-10-10T03:41:53.708Z,9.10
2022-10-10T03:44:55.081Z,9.10
2022-10-10T03:47:56.168Z,9.20
2022-10-10T03:50:57.013Z,9.10
2022-10-10T03:53:57.788Z,9.10
2022-10-10T03:56:59.074Z,9.10
2022-10-10T03:59:59.849Z,9.10
2022-10-10T04:03:00.937Z,9.10
2022-10-10T04:06:01.889Z,9.10
2022-10-10T04:09:05.503Z,9.20
2022-10-10T04:12:06.451Z,9.30
2022-10-10T04:15:08.456Z,9.30
2022-10-10T04:18:09.593Z,9.20
2022-10-10T04:21:11.557Z,9.30
2022-10-10T04:24:12.431Z,9.30
2022-10-10T04:27:13.237Z,9.30
2022-10-10T04:30:14.503Z,9.30
2022-10-10T04:33:15.179Z,9.20
2022-10-10T04:36:16.381Z,9.30
2022-10-10T04:39:17.174Z,9.30
2022-10-10T04:42:17.957Z,9.40
2022-10-10T04:45:19.530Z,9.40
2022-10-10T04:48:20.525Z,9.40
2022-10-10T04:51:21.092Z,9.40
2022-10-10T04:54:21.912Z,9.30
2022-10-10T04:57:23.062Z,9.30
2022-10-10T05:00:24.222Z,9.30
2022-10-10T05:03:26.184Z,9.30
2022-10-10T05:06:27.216Z,9.40
2022-10-10T05:09:28.185Z,9.40
2022-10-10T05:12:29.041Z,9.50
2022-10-10T05:15:29.815Z,9.50
2022-10-10T05:18:30.490Z,9.50
2022-10-10T05:21:31.827Z,9.50
2022-10-10T05:24:32.393Z,9.50
2022-10-10T05:27:33.186Z,9.40
2022-10-10T05:30:33.982Z,9.40
2022-10-10T05:33:35.593Z,9.30
2022-10-10T05:36:36.902Z,9.30
2022-10-10T05:39:37.666Z,9.40
2022-10-10T05:42:39.055Z,9.30
2022-10-10T05:45:39.938Z,9.40
2022-10-10T05:48:40.727Z,9.40
2022-10-10T05:51:41.512Z,9.40
2022-10-10T05:54:42.743Z,9.50
2022-10-10T05:57:43.504Z,9.50
2022-10-10T06:00:46.839Z,9.40
2022-10-10T06:03:52.883Z,9.50
2022-10-10T06:06:54.204Z,9.50
2022-10-10T06:09:55.055Z,9.50
2022-10-10T06:12:56.026Z,9.60
2022-10-10T06:15:56.828Z,9.60
2022-10-10T06:18:57.671Z,9.70
2022-10-10T06:21:58.373Z,9.70
2022-10-10T06:24:59.127Z,9.70
2022-10-10T06:28:00.738Z,9.80
2022-10-10T06:31:06.240Z,9.80
2022-10-10T06:34:07.813Z,9.90
2022-10-10T06:37:08.983Z,10.00
2022-10-10T06:40:10.802Z,10.10
2022-10-10T06:43:14.136Z,10.20
2022-10-10T06:46:15.425Z,10.30
2022-10-10T06:49:16.704Z,10.40
2022-10-10T06:52:17.592Z,10.50
2022-10-10T06:55:18.738Z,10.60
2022-10-10T06:58:19.482Z,10.70
2022-10-10T07:01:22.782Z,10.80
2022-10-10T07:04:23.953Z,10.80
2022-10-10T07:07:24.783Z,10.90
2022-10-10T07:10:26.132Z,10.90
2022-10-10T07:13:27.065Z,10.90
2022-10-10T07:16:28.143Z,11.00
2022-10-10T07:19:29.319Z,11.10
2022-10-10T07:22:30.335Z,11.20
2022-10-10T07:25:31.826Z,11.30
2022-10-10T07:28:34.263Z,11.50
2022-10-10T07:31:35.492Z,11.50
2022-10-10T07:34:37.474Z,11.70
2022-10-10T07:37:39.717Z,11.80
2022-10-10T07:40:41.739Z,11.90
2022-10-10T07:43:42.673Z,11.90
2022-10-10T07:46:43.425Z,11.90
2022-10-10T07:49:44.201Z,12.00
2022-10-10T07:52:44.841Z,12.20
2022-10-10T07:55:46.153Z,12.20
2022-10-10T07:58:47.101Z,12.40
2022-10-10T08:01:47.866Z,12.40
2022-10-10T08:04:49.110Z,12.50
2022-10-10T08:07:50.002Z,12.60
2022-10-10T08:10:51.489Z,12.80
2022-10-10T08:13:52.145Z,12.80
2022-10-10T08:16:53.390Z,12.90
2022-10-10T08:19:54.127Z,12.90
2022-10-10T08:22:55.216Z,13.00
2022-10-10T08:26:00.540Z,13.40
2022-10-10T08:29:01.684Z,13.70
2022-10-10T08:32:02.761Z,13.70
2022-10-10T08:35:03.748Z,13.80
2022-10-10T08:38:05.206Z,13.90
2022-10-10T08:41:27.747Z,14.00
2022-10-10T08:44:44.059Z,14.10
2022-10-10T08:48:00.166Z,14.20
2022-10-10T08:51:17.926Z,14.30
2022-10-10T08:54:22.627Z,14.10
2022-10-10T08:57:33.581Z,14.10
2022-10-10T09:00:43.540Z,14.60
2022-10-10T09:03:54.842Z,14.90
2022-10-10T09:07:36.476Z,14.90
2022-10-10T09:11:21.108Z,14.90
2022-10-10T09:15:03.619Z,15.10
2022-10-10T09:18:20.394Z,14.80
2022-10-10T09:21:28.570Z,15.10
2022-10-10T09:24:48.021Z,15.40
2022-10-10T09:28:13.404Z,15.20
2022-10-10T09:31:33.338Z,15.20
2022-10-10T09:34:47.911Z,15.10
2022-10-10T09:38:21.618Z,15.10
2022-10-10T09:41:45.258Z,15.20
2022-10-10T09:44:46.611Z,15.40
2022-10-10T09:47:53.368Z,15.60
2022-10-10T09:50:54.441Z,16.00
2022-10-10T09:53:55.353Z,16.40
2022-10-10T09:56:58.742Z,16.50
2022-10-10T10:00:03.695Z,15.90
2022-10-10T10:03:18.979Z,15.70
2022-10-10T10:06:20.417Z,15.60
2022-10-10T10:09:23.653Z,15.60
2022-10-10T10:12:37.588Z,16.30
2022-10-10T10:15:38.739Z,17.40
2022-10-10T10:18:46.570Z,19.40
2022-10-10T10:21:51.586Z,18.60
2022-10-10T10:24:53.339Z,18.10
2022-10-10T10:28:11.043Z,18.30
2022-10-10T10:31:42.747Z,17.70
2022-10-10T10:34:51.636Z,18.20
2022-10-10T10:38:21.006Z,18.30
2022-10-10T10:41:37.031Z,17.90
2022-10-10T10:45:01.663Z,17.90
2022-10-10T10:48:29.357Z,18.20
2022-10-10T10:51:43.742Z,18.10
2022-10-10T10:55:22.748Z,18.10
2022-10-10T10:59:16.069Z,18.00
2022-10-10T11:02:43.605Z,17.60
2022-10-10T11:06:08.748Z,17.20
2022-10-10T11:09:49.053Z,17.00
2022-10-10T11:13:06.227Z,17.30
2022-10-10T11:16:30.279Z,17.40
2022-10-10T11:19:44.341Z,18.00
2022-10-10T11:23:07.946Z,19.00
2022-10-10T11:26:26.642Z,22.20
2022-10-10T11:29:48.443Z,21.40
2022-10-10T11:33:20.000Z,20.70
2022-10-10T11:36:32.083Z,21.60
2022-10-10T11:39:54.589Z,24.50
2022-10-10T11:43:06.413Z,26.60
2022-10-10T11:46:36.912Z,28.30
2022-10-10T11:50:15.476Z,28.20
2022-10-10T11:53:43.016Z,26.10
2022-10-10T11:56:46.688Z,26.10
2022-10-10T11:59:58.071Z,28.20
2022-10-10T12:02:59.010Z,27.00
2022-10-10T12:06:11.853Z,25.30
2022-10-10T12:09:37.577Z,24.60
2022-10-10T12:12:46.544Z,24.60
2022-10-10T12:15:54.447Z,26.70
2022-10-10T12:19:07.233Z,25.50
2022-10-10T12:22:18.913Z,26.00
2022-10-10T12:25:45.327Z,25.60
2022-10-10T12:29:03.191Z,27.00
2022-10-10T12:32:19.270Z,27.70
2022-10-10T12:35:40.298Z,26.90
2022-10-10T12:39:01.087Z,26.70
2022-10-10T12:42:02.055Z,24.10
2022-10-10T12:45:03.245Z,23.80
2022-10-10T12:48:22.076Z,23.30
2022-10-10T12:51:24.620Z,23.10
2022-10-10T12:54:33.723Z,23.00
2022-10-10T12:57:43.421Z,22.70
2022-10-10T13:00:47.745Z,23.60
2022-10-10T13:03:50.734Z,22.40
2022-10-10T13:06:58.316Z,21.50
2022-10-10T13:10:09.358Z,22.10
2022-10-10T13:13:20.618Z,24.50
2022-10-10T13:16:31.147Z,23.00
2022-10-10T13:19:41.975Z,22.50
2022-10-10T13:22:47.061Z,22.10
2022-10-10T13:25:48.614Z,21.80
2022-10-10T13:28:51.848Z,21.20
2022-10-10T13:32:00.100Z,20.70
2022-10-10T13:35:13.111Z,20.50
2022-10-10T13:38:17.551Z,20.50
2022-10-10T13:41:21.184Z,20.30
2022-10-10T13:44:26.229Z,20.10
2022-10-10T13:47:57.533Z,19.70
2022-10-10T13:51:13.708Z,18.70
2022-10-10T13:54:48.138Z,19.00
2022-10-10T13:57:51.402Z,18.80
2022-10-10T14:01:03.028Z,18.30
2022-10-10T14:04:13.287Z,18.40
2022-10-10T14:07:24.299Z,18.60
2022-10-10T14:10:33.876Z,21.20
2022-10-10T14:13:38.888Z,27.40
2022-10-10T14:16:39.684Z,27.30
2022-10-10T14:19:42.856Z,23.20
2022-10-10T14:22:44.136Z,21.50
2022-10-10T14:25:48.805Z,19.80
2022-10-10T14:28:49.984Z,19.20
2022-10-10T14:31:50.853Z,19.60
2022-10-10T14:34:52.053Z,20.20
2022-10-10T14:37:53.062Z,22.30
2022-10-10T14:40:55.264Z,26.70
2022-10-10T14:43:55.978Z,27.60
2022-10-10T14:46:57.347Z,28.90
2022-10-10T14:49:58.981Z,30.10
2022-10-10T14:52:59.969Z,28.50
2022-10-10T14:56:01.133Z,29.80
2022-10-10T14:59:02.506Z,28.30
2022-10-10T15:02:03.423Z,28.00
2022-10-10T15:05:04.694Z,26.60
2022-10-10T15:08:07.231Z,25.80
2022-10-10T15:11:15.384Z,27.70
2022-10-10T15:14:16.441Z,27.40
2022-10-10T15:17:17.582Z,24.60
2022-10-10T15:20:18.421Z,24.90
2022-10-10T15:23:19.355Z,25.70
2022-10-10T15:26:20.012Z,26.90
2022-10-10T15:29:20.998Z,24.90
2022-10-10T15:32:21.807Z,23.90
2022-10-10T15:35:24.625Z,22.70
2022-10-10T15:38:26.805Z,22.00
2022-10-10T15:41:27.485Z,23.00
2022-10-10T15:44:28.217Z,22.70
2022-10-10T15:47:29.120Z,21.80
2022-10-10T15:50:30.382Z,20.30
2022-10-10T15:53:31.073Z,19.50
2022-10-10T15:56:32.150Z,18.60
2022-10-10T15:59:33.877Z,18.70
2022-10-10T16:02:34.557Z,21.40
2022-10-10T16:05:42.878Z,22.20
2022-10-10T16:08:45.672Z,20.70
2022-10-10T16:11:47.000Z,20.00
2022-10-10T16:14:48.028Z,18.20
2022-10-10T16:17:49.131Z,17.30
2022-10-10T16:20:49.936Z,16.80
2022-10-10T16:23:57.040Z,16.80
2022-10-10T16:26:59.760Z,16.50
2022-10-10T16:30:00.763Z,16.30
2022-10-10T16:33:01.631Z,16.00
2022-10-10T16:36:10.517Z,15.70
2022-10-10T16:39:12.915Z,15.50
2022-10-10T16:42:13.876Z,15.30
2022-10-10T16:45:14.838Z,15.10
2022-10-10T16:48:16.076Z,14.90
2022-10-10T16:51:21.161Z,14.70
2022-10-10T16:54:22.264Z,14.30
2022-10-10T16:57:23.156Z,14.10
2022-10-10T17:00:23.826Z,14.00
2022-10-10T17:03:25.337Z,14.00
2022-10-10T17:06:32.584Z,13.90
2022-10-10T17:09:36.575Z,13.90
2022-10-10T17:12:37.545Z,13.80
2022-10-10T17:15:42.232Z,13.70
2022-10-10T17:18:44.024Z,13.70
2022-10-10T17:21:44.721Z,13.60
2022-10-10T17:24:45.494Z,13.60
2022-10-10T17:27:46.232Z,13.60
2022-10-10T17:30:50.511Z,13.60
2022-10-10T17:33:54.547Z,13.70
2022-10-10T17:36:55.922Z,13.50
2022-10-10T17:39:56.765Z,13.40
2022-10-10T17:43:00.432Z,13.30
2022-10-10T17:46:32.740Z,13.30
2022-10-10T17:49:30.046Z,13.20
2022-10-10T17:52:31.960Z,13.20
2022-10-10T17:55:33.163Z,13.20
2022-10-10T17:58:34.038Z,13.10
2022-10-10T18:01:36.923Z,13.00
2022-10-10T18:04:37.964Z,13.00
2022-10-10T18:07:38.844Z,13.20
2022-10-10T18:10:41.320Z,13.10
2022-10-10T18:13:42.762Z,13.00
2022-10-10T18:16:45.194Z,13.00
2022-10-10T18:19:47.556Z,13.00
2022-10-10T18:22:48.188Z,12.90
2022-10-10T18:25:48.947Z,12.90
2022-10-10T18:28:52.793Z,13.10
2022-10-10T18:31:54.368Z,13.10
2022-10-10T18:34:55.303Z,13.10
2022-10-10T18:37:56.502Z,13.30
2022-10-10T18:41:05.979Z,13.20
2022-10-10T18:44:12.150Z,13.40
2022-10-10T18:47:13.352Z,13.50
2022-10-10T18:50:14.241Z,13.50
2022-10-10T18:53:15.000Z,13.50
2022-10-10T18:56:21.266Z,13.20
2022-10-10T18:59:22.337Z,12.80
2022-10-10T19:02:23.481Z,12.60
2022-10-10T19:05:24.608Z,12.50
2022-10-10T19:08:25.600Z,12.50
2022-10-10T19:11:34.266Z,12.60
2022-10-10T19:14:35.395Z,12.40
2022-10-10T19:17:36.031Z,12.20
2022-10-10T19:20:39.315Z,12.10
2022-10-10T19:23:40.310Z,12.10
2022-10-10T19:26:43.774Z,12.30
2022-10-10T19:29:44.551Z,12.40
2022-10-10T19:36:09.668Z,12.10
2022-10-10T19:39:10.600Z,12.00
2022-10-10T19:42:11.497Z,12.00
2022-10-10T19:45:12.381Z,12.20
2022-10-10T19:48:15.286Z,12.50
2022-10-10T19:51:20.133Z,12.70
2022-10-10T19:54:21.149Z,12.70
2022-10-10T19:57:22.351Z,12.30
2022-10-10T20:00:23.690Z,12.40
2022-10-10T20:03:24.810Z,12.70
2022-10-10T20:06:26.482Z,12.80
2022-10-10T20:09:29.423Z,13.00
2022-10-10T20:12:30.717Z,12.90
2022-10-10T20:15:31.747Z,12.20
2022-10-10T20:18:40.220Z,11.80
2022-10-10T20:21:41.526Z,11.80
2022-10-10T20:24:42.633Z,12.00
2022-10-10T20:27:43.955Z,12.00
2022-10-10T20:30:48.685Z,12.10
2022-10-10T20:33:53.298Z,12.70
2022-10-10T20:36:54.230Z,12.80
2022-10-10T20:39:54.944Z,12.80
2022-10-10T20:42:55.760Z,12.70
2022-10-10T20:45:56.794Z,12.70
2022-10-10T20:49:00.321Z,12.70
2022-10-10T20:52:01.123Z,12.80
2022-10-10T20:55:01.993Z,12.80
2022-10-10T20:58:02.926Z,12.70
2022-10-10T21:01:17.914Z,12.70
2022-10-10T21:04:18.970Z,12.70
2022-10-10T21:07:20.253Z,12.70
2022-10-10T21:10:20.854Z,12.80
2022-10-10T21:13:21.553Z,12.80
2022-10-10T21:16:26.174Z,12.90
2022-10-10T21:19:26.753Z,12.90
2022-10-10T21:22:28.005Z,12.80
2022-10-10T21:25:28.901Z,12.60
2022-10-10T21:28:29.764Z,12.20
2022-10-10T21:31:35.862Z,11.80
2022-10-10T21:34:37.177Z,11.50
2022-10-10T21:37:38.226Z,11.60
2022-10-10T21:40:39.686Z,11.70
2022-10-10T21:43:44.782Z,11.70
2022-10-10T21:46:45.624Z,11.60
2022-10-10T21:49:46.202Z,11.50
2022-10-10T21:52:46.748Z,11.40
2022-10-10T21:55:47.440Z,11.30
2022-10-10T21:58:48.362Z,11.50
2022-10-10T22:01:49.276Z,11.50
2022-10-10T22:04:51.522Z,11.30
2022-10-10T22:07:52.345Z,11.50
2022-10-10T22:10:53.159Z,11.50
2022-10-10T22:13:54.472Z,11.80
2022-10-10T22:16:55.189Z,12.00
2022-10-10T22:19:56.179Z,12.00
2022-10-10T22:22:57.370Z,11.90
2022-10-10T22:25:58.904Z,11.90
2022-10-10T22:28:59.811Z,11.80
2022-10-10T22:32:00.630Z,11.30
2022-10-10T22:35:02.031Z,11.10
2022-10-10T22:38:03.599Z,11.20
2022-10-10T22:41:04.741Z,11.40
2022-10-10T22:44:05.783Z,11.40
2022-10-10T22:47:06.798Z,11.40
2022-10-10T22:50:08.867Z,11.60
2022-10-10T22:53:09.583Z,11.60
2022-10-10T22:56:15.397Z,11.30
2022-10-10T22:59:16.287Z,11.20
2022-10-10T23:02:17.158Z,11.00
2022-10-10T23:05:17.818Z,10.80
2022-10-10T23:08:18.423Z,10.80
2022-10-10T23:11:19.298Z,10.90
2022-10-10T23:14:20.027Z,11.00
2022-10-10T23:17:20.753Z,11.00
2022-10-10T23:20:22.020Z,10.90
2022-10-10T23:23:22.542Z,10.80
2022-10-10T23:26:23.442Z,10.50
2022-10-10T23:29:24.714Z,10.60
2022-10-10T23:32:29.385Z,10.50
2022-10-10T23:35:30.396Z,10.70
2022-10-10T23:38:31.267Z,10.90
2022-10-10T23:41:32.080Z,11.00
2022-10-10T23:44:32.808Z,11.10
2022-10-10T23:47:33.648Z,11.20
2022-10-10T23:50:35.000Z,11.50
2022-10-10T23:53:36.809Z,11.60
2022-10-10T23:56:38.119Z,11.50
2022-10-10T23:59:38.985Z,11.50
